Time;durP1;ratioP1;P1;durP2;ratioP2;P2;SDS_P1;SDS_P2;PMS_P1;PMS_P2;Temp;Humidity;BMP_temperature;BMP_pressure;BME280_temperature;BME280_humidity;BME280_pressure;Samples;Min_cycle;Max_cycle;Signal;HPM_P1;HPM_P2
2021/12/30 00:00:54;;;;;;;16.30;13.93;;;3.00;99.90;;;;;;5111724;28;20206;-86
2021/12/30 00:03:21;;;;;;;12.33;11.03;;;3.00;99.90;;;;;;5093348;28;20545;-83
2021/12/30 00:05:47;;;;;;;10.07;9.07;;;3.00;99.90;;;;;;5111899;28;20484;-82
2021/12/30 00:08:13;;;;;;;10.00;9.00;;;2.90;99.90;;;;;;5112202;28;20635;-86
2021/12/30 00:10:40;;;;;;;8.83;7.93;;;3.00;99.90;;;;;;5113377;28;20178;-84
2021/12/30 00:13:07;;;;;;;8.80;7.90;;;3.00;99.90;;;;;;5094740;28;20186;-87
2021/12/30 00:15:33;;;;;;;11.13;9.83;;;3.10;99.90;;;;;;5111597;28;20713;-86
2021/12/30 00:17:59;;;;;;;9.50;8.60;;;3.10;99.90;;;;;;5111537;28;20632;-84
2021/12/30 00:20:27;;;;;;;9.93;8.93;;;3.10;99.90;;;;;;5111748;28;20264;-86
2021/12/30 00:22:53;;;;;;;8.40;7.60;;;3.10;99.90;;;;;;5111785;28;20248;-91
2021/12/30 00:25:19;;;;;;;9.03;7.97;;;3.10;99.90;;;;;;5111316;28;20304;-87
2021/12/30 00:27:45;;;;;;;8.73;7.83;;;3.30;99.90;;;;;;5111967;28;20253;-87
2021/12/30 00:30:13;;;;;;;9.97;8.93;;;3.30;99.90;;;;;;5112356;28;20261;-87
2021/12/30 00:32:39;;;;;;;16.33;12.93;;;3.30;99.90;;;;;;5112184;28;20216;-88
2021/12/30 00:35:06;;;;;;;18.27;14.70;;;3.30;99.90;;;;;;5093336;28;20178;-86
2021/12/30 00:37:32;;;;;;;14.43;12.93;;;3.30;99.90;;;;;;5092993;28;20519;-89
2021/12/30 00:39:57;;;;;;;15.50;13.57;;;3.40;99.90;;;;;;5111607;28;20666;-82
2021/12/30 00:42:23;;;;;;;16.43;14.30;;;3.40;99.90;;;;;;5110902;28;20195;-81
2021/12/30 00:44:49;;;;;;;16.93;14.90;;;3.50;99.90;;;;;;5111047;28;20188;-81
2021/12/30 00:47:14;;;;;;;18.97;15.60;;;3.50;99.90;;;;;;5111698;28;20212;-81
2021/12/30 00:49:40;;;;;;;18.17;15.87;;;3.50;99.90;;;;;;5115316;28;20649;-82
2021/12/30 00:52:06;;;;;;;20.43;16.63;;;3.50;99.90;;;;;;5115230;28;20219;-85
2021/12/30 00:54:32;;;;;;;19.40;16.77;;;3.50;99.90;;;;;;5114991;28;20267;-82
2021/12/30 00:56:59;;;;;;;19.90;16.30;;;3.50;99.90;;;;;;5114851;28;20246;-81
2021/12/30 00:59:25;;;;;;;20.57;16.90;;;3.50;99.90;;;;;;5114887;28;20184;-82
2021/12/30 01:01:51;;;;;;;20.53;16.37;;;3.50;99.90;;;;;;5114842;28;20541;-84
2021/12/30 01:04:20;;;;;;;20.63;17.10;;;3.50;99.90;;;;;;5114866;28;20256;-82
2021/12/30 01:06:46;;;;;;;20.20;17.40;;;3.40;99.90;;;;;;5114761;28;20212;-81
2021/12/30 01:09:12;;;;;;;20.47;17.07;;;3.40;99.90;;;;;;5114669;28;20222;-81
2021/12/30 01:11:38;;;;;;;19.13;17.07;;;3.40;99.90;;;;;;5114711;28;20189;-82
2021/12/30 01:14:14;;;;;;;21.93;17.73;;;3.40;99.90;;;;;;5114635;28;20177;-82
2021/12/30 01:16:43;;;;;;;18.60;16.60;;;3.40;99.90;;;;;;5114507;28;20204;-81
2021/12/30 01:19:42;;;;;;;20.70;17.60;;;3.30;99.90;;;;;;5114623;28;20193;-82
2021/12/30 01:22:02;;;;;;;21.33;17.23;;;3.30;99.90;;;;;;5114413;28;20186;-81
2021/12/30 01:24:27;;;;;;;20.50;17.23;;;3.40;99.90;;;;;;5114709;28;20174;-84
2021/12/30 01:26:53;;;;;;;19.37;16.53;;;3.30;99.90;;;;;;5096648;28;20232;-86
2021/12/30 01:29:19;;;;;;;19.03;16.33;;;3.20;99.90;;;;;;5121241;28;20230;-81
2021/12/30 01:31:45;;;;;;;20.13;16.30;;;3.30;99.90;;;;;;5125003;28;20190;-81
2021/12/30 01:34:12;;;;;;;18.33;15.57;;;3.30;99.90;;;;;;5125865;28;20170;-82
2021/12/30 01:36:38;;;;;;;18.93;16.27;;;3.30;99.90;;;;;;5135366;28;20174;-84
2021/12/30 01:39:04;;;;;;;18.33;15.90;;;3.20;99.90;;;;;;5115245;28;20182;-87
2021/12/30 01:41:30;;;;;;;20.37;16.40;;;3.30;99.90;;;;;;5123116;28;20193;-87
2021/12/30 01:43:56;;;;;;;21.23;16.17;;;3.30;99.90;;;;;;5100882;28;20512;-84
2021/12/30 01:46:21;;;;;;;20.33;16.40;;;3.30;99.90;;;;;;5114693;28;20255;-87
2021/12/30 01:48:47;;;;;;;21.27;16.77;;;3.30;99.90;;;;;;5114496;28;20634;-85
2021/12/30 01:51:13;;;;;;;21.73;16.87;;;3.40;99.90;;;;;;5114516;28;20215;-87
2021/12/30 01:53:39;;;;;;;20.87;16.57;;;3.30;99.90;;;;;;5114302;28;20181;-85
2021/12/30 01:56:05;;;;;;;19.17;16.27;;;3.30;99.90;;;;;;5114249;28;20177;-87
2021/12/30 01:58:36;;;;;;;20.97;17.30;;;3.30;99.90;;;;;;5118517;28;20175;-83
2021/12/30 02:01:03;;;;;;;22.33;16.80;;;3.40;99.90;;;;;;5133974;28;20237;-83
2021/12/30 02:03:29;;;;;;;18.97;16.00;;;3.40;99.90;;;;;;5132984;28;20212;-81
2021/12/30 02:05:55;;;;;;;21.53;17.03;;;3.40;99.90;;;;;;5123794;28;20677;-88
2021/12/30 02:08:21;;;;;;;21.37;16.13;;;3.40;99.90;;;;;;5121496;28;20174;-85
2021/12/30 02:10:48;;;;;;;19.87;16.37;;;3.40;99.90;;;;;;5122234;28;20215;-87
2021/12/30 02:13:19;;;;;;;19.13;16.10;;;3.40;99.90;;;;;;5116010;28;20636;-88
2021/12/30 02:15:45;;;;;;;18.97;16.93;;;3.40;99.90;;;;;;5115996;28;20185;-88
2021/12/30 02:18:10;;;;;;;19.70;16.90;;;3.50;99.90;;;;;;5114772;28;20639;-85
2021/12/30 02:20:43;;;;;;;20.70;16.33;;;3.50;99.90;;;;;;5114428;28;20652;-82
2021/12/30 02:23:09;;;;;;;19.40;16.63;;;3.50;99.90;;;;;;5113506;28;20264;-81
2021/12/30 02:25:36;;;;;;;19.87;16.13;;;3.60;99.90;;;;;;5094539;28;20373;-82
2021/12/30 02:28:06;;;;;;;21.93;16.07;;;3.50;99.90;;;;;;5113155;28;20172;-81
2021/12/30 02:30:32;;;;;;;21.33;16.87;;;3.60;99.90;;;;;;5094854;28;20246;-81
2021/12/30 02:32:57;;;;;;;19.73;15.33;;;3.60;99.90;;;;;;5113189;28;20211;-81
2021/12/30 02:35:23;;;;;;;16.40;13.63;;;3.60;99.90;;;;;;5112895;28;20510;-81
2021/12/30 02:37:50;;;;;;;17.83;14.60;;;3.60;99.90;;;;;;5113330;28;20644;-81
2021/12/30 02:40:36;;;;;;;16.27;13.63;;;3.70;99.90;;;;;;5112983;28;20307;-82
2021/12/30 02:43:04;;;;;;;18.40;13.80;;;3.70;99.90;;;;;;5112836;28;20687;-81
2021/12/30 02:45:30;;;;;;;9.77;8.73;;;3.70;99.90;;;;;;5112852;28;20612;-83
2021/12/30 02:47:55;;;;;;;12.07;10.80;;;3.70;99.90;;;;;;5112890;28;20315;-83
2021/12/30 02:50:21;;;;;;;12.83;10.83;;;3.80;99.90;;;;;;5113030;28;20170;-83
2021/12/30 02:52:47;;;;;;;13.43;11.93;;;4.00;99.90;;;;;;5112965;28;20512;-84
2021/12/30 02:55:13;;;;;;;14.10;12.43;;;4.10;99.90;;;;;;5112713;28;20172;-84
2021/12/30 02:57:38;;;;;;;15.03;13.23;;;4.10;99.90;;;;;;5112597;28;20240;-81
2021/12/30 03:00:06;;;;;;;16.23;13.37;;;4.00;99.90;;;;;;5112558;28;20180;-83
2021/12/30 03:02:36;;;;;;;16.17;13.10;;;4.00;99.90;;;;;;5094279;28;20753;-81
2021/12/30 03:05:03;;;;;;;15.73;13.30;;;4.00;99.90;;;;;;5112471;28;20174;-81
2021/12/30 03:07:29;;;;;;;17.30;13.97;;;4.10;99.90;;;;;;5112472;28;20205;-82
2021/12/30 03:09:55;;;;;;;18.10;14.90;;;4.00;99.90;;;;;;5111632;28;20162;-82
2021/12/30 03:12:21;;;;;;;17.83;15.13;;;4.00;99.90;;;;;;5112408;28;20227;-81
2021/12/30 03:14:46;;;;;;;15.70;13.83;;;3.90;99.90;;;;;;5112453;28;20185;-82
2021/12/30 03:17:12;;;;;;;17.13;15.30;;;3.90;99.90;;;;;;5112484;28;20174;-82
2021/12/30 03:19:38;;;;;;;15.97;14.27;;;3.90;99.90;;;;;;5114916;28;20177;-85
2021/12/30 03:22:04;;;;;;;16.77;14.80;;;3.90;99.90;;;;;;5112865;28;20260;-84
2021/12/30 03:24:30;;;;;;;17.83;14.83;;;3.80;99.90;;;;;;5120670;28;20895;-82
2021/12/30 03:26:56;;;;;;;16.03;14.43;;;3.60;99.90;;;;;;5129592;28;20256;-83
2021/12/30 03:29:21;;;;;;;17.23;15.47;;;3.60;99.90;;;;;;5127562;28;20618;-82
2021/12/30 03:31:47;;;;;;;18.13;13.70;;;3.50;99.90;;;;;;5100357;28;20181;-81
2021/12/30 03:34:14;;;;;;;17.30;14.73;;;3.60;99.90;;;;;;5113565;28;20249;-82
2021/12/30 03:36:39;;;;;;;16.13;14.03;;;3.50;99.90;;;;;;5112919;28;20169;-83
2021/12/30 03:39:06;;;;;;;15.87;14.40;;;3.50;99.90;;;;;;5111944;28;20225;-81
2021/12/30 03:41:32;;;;;;;16.00;14.20;;;3.60;99.90;;;;;;5111898;28;20256;-81
2021/12/30 03:44:00;;;;;;;17.43;13.80;;;3.60;99.90;;;;;;5111843;28;20184;-84
2021/12/30 03:46:28;;;;;;;15.73;13.77;;;3.50;99.90;;;;;;5093486;28;20209;-81
2021/12/30 03:48:54;;;;;;;14.90;12.37;;;3.60;99.90;;;;;;5111567;28;20174;-83
2021/12/30 03:51:24;;;;;;;14.67;12.87;;;3.60;99.90;;;;;;5111552;28;20176;-84
2021/12/30 03:53:54;;;;;;;16.40;12.70;;;3.60;99.90;;;;;;5111971;28;20179;-82
2021/12/30 03:56:24;;;;;;;17.93;13.90;;;3.60;99.90;;;;;;5112028;28;20172;-87
2021/12/30 03:58:49;;;;;;;14.87;12.83;;;3.60;99.90;;;;;;5112303;28;20186;-87
2021/12/30 04:01:18;;;;;;;15.37;13.73;;;3.70;99.90;;;;;;5112258;28;20164;-89
2021/12/30 04:03:44;;;;;;;14.97;13.33;;;3.70;99.90;;;;;;5093525;28;20224;-83
2021/12/30 04:06:10;;;;;;;14.80;12.97;;;3.70;99.90;;;;;;5111353;28;20213;-82
2021/12/30 04:08:36;;;;;;;14.73;13.13;;;3.70;99.90;;;;;;5111295;28;20173;-83
2021/12/30 04:11:02;;;;;;;14.80;13.20;;;3.70;99.90;;;;;;5111441;28;20177;-83
2021/12/30 04:13:29;;;;;;;14.93;13.33;;;3.70;99.90;;;;;;5111127;28;20173;-83
2021/12/30 04:15:54;;;;;;;15.40;13.10;;;3.70;99.90;;;;;;5111230;28;20188;-82
2021/12/30 04:18:20;;;;;;;15.60;12.77;;;3.70;99.90;;;;;;5111245;28;20824;-83
2021/12/30 04:20:46;;;;;;;17.47;13.87;;;3.70;99.90;;;;;;5111041;28;20181;-83
2021/12/30 04:23:13;;;;;;;14.77;12.87;;;3.70;99.90;;;;;;5092919;28;20184;-84
2021/12/30 04:25:39;;;;;;;14.80;12.60;;;3.70;99.90;;;;;;5110902;28;20230;-84
2021/12/30 04:28:05;;;;;;;14.93;13.13;;;3.70;99.90;;;;;;5110974;28;20175;-82
2021/12/30 04:30:31;;;;;;;14.23;12.60;;;3.70;99.90;;;;;;5111258;28;20188;-84
2021/12/30 04:32:57;;;;;;;15.33;13.73;;;3.70;99.90;;;;;;5110910;28;20173;-84
2021/12/30 04:35:23;;;;;;;15.40;13.73;;;3.60;99.90;;;;;;5111206;28;20896;-84
2021/12/30 04:37:49;;;;;;;15.00;13.23;;;3.60;99.90;;;;;;5111116;28;20173;-84
2021/12/30 04:40:15;;;;;;;14.20;12.70;;;3.60;99.90;;;;;;5110741;28;20225;-83
2021/12/30 04:42:42;;;;;;;14.17;12.77;;;3.60;99.90;;;;;;5111021;28;20178;-83
2021/12/30 04:45:10;;;;;;;14.87;12.80;;;3.60;99.90;;;;;;5110905;28;20260;-87
2021/12/30 04:47:38;;;;;;;15.70;12.90;;;3.50;99.90;;;;;;5111376;28;20210;-91
2021/12/30 04:50:05;;;;;;;14.93;12.93;;;3.50;99.90;;;;;;5093309;28;20189;-89
2021/12/30 04:52:31;;;;;;;14.60;11.90;;;3.50;99.90;;;;;;5115353;28;20196;-91
2021/12/30 04:54:57;;;;;;;15.23;13.10;;;3.50;99.90;;;;;;5112210;28;20185;-91
2021/12/30 04:57:23;;;;;;;16.77;13.70;;;3.40;99.90;;;;;;5111951;28;20202;-90
2021/12/30 04:59:49;;;;;;;15.27;13.50;;;3.40;99.90;;;;;;5112091;28;20559;-91
2021/12/30 05:02:14;;;;;;;14.23;12.53;;;3.30;99.90;;;;;;5111708;28;20180;-89
2021/12/30 05:04:40;;;;;;;15.33;13.37;;;3.30;99.90;;;;;;5112175;28;20200;-91
2021/12/30 05:07:06;;;;;;;14.53;12.60;;;3.30;99.90;;;;;;5112001;28;20215;-90
2021/12/30 05:09:32;;;;;;;15.33;13.40;;;3.20;99.90;;;;;;5111835;28;20622;-90
2021/12/30 05:11:58;;;;;;;14.87;12.27;;;3.20;99.90;;;;;;5112130;28;20182;-89
2021/12/30 05:14:24;;;;;;;15.30;13.33;;;3.20;99.90;;;;;;5113003;28;20181;-91
2021/12/30 05:16:51;;;;;;;13.77;12.10;;;3.30;99.90;;;;;;5120409;28;20167;-91
2021/12/30 05:19:18;;;;;;;12.93;11.47;;;3.20;99.90;;;;;;5128602;28;20173;-84
2021/12/30 05:21:43;;;;;;;12.57;11.37;;;3.20;99.90;;;;;;5114130;28;20252;-88
2021/12/30 05:24:09;;;;;;;13.23;11.67;;;3.10;99.90;;;;;;5125529;28;20170;-86
2021/12/30 05:26:35;;;;;;;14.63;11.70;;;3.20;99.90;;;;;;5109115;28;20236;-87
2021/12/30 05:29:03;;;;;;;13.57;11.57;;;3.10;99.90;;;;;;5119876;28;20178;-90
2021/12/30 05:31:29;;;;;;;13.27;11.97;;;3.10;99.90;;;;;;5093545;28;20699;-89
2021/12/30 05:33:54;;;;;;;12.57;11.37;;;3.00;99.90;;;;;;5114134;28;20181;-91
2021/12/30 05:36:20;;;;;;;13.17;11.77;;;3.00;99.90;;;;;;5115345;28;20587;-90
2021/12/30 05:38:47;;;;;;;13.30;11.00;;;2.90;99.90;;;;;;5115217;28;20162;-90
2021/12/30 05:41:13;;;;;;;12.60;11.33;;;2.90;99.90;;;;;;5115250;28;20174;-89
2021/12/30 05:43:39;;;;;;;13.27;12.03;;;2.80;99.90;;;;;;5115267;28;20174;-89
2021/12/30 05:46:05;;;;;;;14.27;11.70;;;2.90;99.90;;;;;;5096132;28;20206;-84
2021/12/30 05:48:31;;;;;;;12.37;11.10;;;3.00;99.90;;;;;;5114325;28;20185;-85
2021/12/30 05:51:00;;;;;;;13.00;11.70;;;2.90;99.90;;;;;;5114696;28;20652;-84
2021/12/30 05:53:27;;;;;;;12.93;10.73;;;2.90;99.90;;;;;;5113846;28;20233;-87
2021/12/30 05:55:53;;;;;;;11.97;10.87;;;2.90;99.90;;;;;;5113819;28;20176;-83
2021/12/30 05:58:19;;;;;;;13.17;11.63;;;3.00;99.90;;;;;;5114338;28;20166;-83
2021/12/30 06:00:45;;;;;;;12.97;11.73;;;3.00;99.90;;;;;;5095621;28;20244;-84
2021/12/30 06:03:10;;;;;;;13.93;11.53;;;2.90;99.90;;;;;;5113870;28;20170;-85
2021/12/30 06:05:36;;;;;;;12.70;11.40;;;2.90;99.90;;;;;;5113648;28;20202;-84
2021/12/30 06:08:02;;;;;;;13.07;11.13;;;2.90;99.90;;;;;;5113671;28;20765;-84
2021/12/30 06:10:27;;;;;;;14.80;11.70;;;2.80;99.90;;;;;;5113598;28;20170;-84
2021/12/30 06:12:53;;;;;;;14.23;12.73;;;2.80;99.90;;;;;;5113697;28;20221;-82
2021/12/30 06:15:19;;;;;;;12.93;11.13;;;2.90;99.90;;;;;;5113828;28;20171;-83
2021/12/30 06:17:45;;;;;;;12.27;11.07;;;2.90;99.90;;;;;;5095016;28;20269;-83
2021/12/30 06:20:13;;;;;;;11.40;10.20;;;3.00;99.90;;;;;;5113405;28;20174;-84
2021/12/30 06:22:41;;;;;;;13.97;11.43;;;3.00;99.90;;;;;;5095017;28;20669;-82
2021/12/30 06:25:07;;;;;;;12.07;10.83;;;3.00;99.90;;;;;;5113090;28;20169;-84
2021/12/30 06:27:33;;;;;;;12.73;11.43;;;3.10;99.90;;;;;;5095284;28;20350;-87
2021/12/30 06:29:59;;;;;;;11.43;10.33;;;3.10;99.90;;;;;;5113850;28;20246;-85
2021/12/30 06:32:25;;;;;;;12.07;10.87;;;3.20;99.90;;;;;;5113842;28;20179;-87
2021/12/30 06:34:50;;;;;;;12.50;11.30;;;3.20;99.90;;;;;;5114019;28;20172;-88
2021/12/30 06:37:16;;;;;;;11.23;10.03;;;3.20;99.90;;;;;;5114023;28;20635;-88
2021/12/30 06:39:42;;;;;;;12.33;11.07;;;3.20;99.90;;;;;;5113603;28;20179;-87
2021/12/30 06:42:08;;;;;;;11.67;10.40;;;3.20;99.90;;;;;;5113721;28;20194;-88
2021/12/30 06:44:34;;;;;;;10.73;9.70;;;3.20;99.90;;;;;;5114202;28;20651;-86
2021/12/30 06:47:03;;;;;;;11.67;10.43;;;3.10;99.90;;;;;;5095682;28;20210;-85
2021/12/30 06:49:37;;;;;;;11.40;10.23;;;3.10;99.90;;;;;;5114012;28;20171;-89
2021/12/30 06:52:10;;;;;;;12.70;11.13;;;3.20;99.90;;;;;;5114083;28;20173;-89
2021/12/30 06:54:38;;;;;;;11.30;10.20;;;3.20;99.90;;;;;;5124197;28;20176;-83
2021/12/30 06:57:06;;;;;;;11.50;10.30;;;3.10;99.90;;;;;;5126408;28;20181;-87
2021/12/30 06:59:37;;;;;;;12.67;11.37;;;3.10;99.90;;;;;;5126850;28;20179;-85
2021/12/30 07:02:07;;;;;;;12.40;11.10;;;3.10;99.90;;;;;;5122149;28;20224;-84
2021/12/30 07:04:33;;;;;;;13.80;10.70;;;3.10;99.90;;;;;;5122959;28;20286;-89
2021/12/30 07:06:59;;;;;;;11.93;10.50;;;3.10;99.90;;;;;;5117196;28;20212;-86
2021/12/30 07:09:25;;;;;;;11.43;9.87;;;3.10;99.90;;;;;;5121693;28;20282;-89
2021/12/30 07:11:51;;;;;;;10.93;9.73;;;3.20;99.90;;;;;;5126324;28;20177;-84
2021/12/30 07:14:18;;;;;;;10.80;9.63;;;3.30;99.90;;;;;;5096538;28;20541;-85
2021/12/30 07:16:44;;;;;;;11.67;9.63;;;3.30;99.90;;;;;;5113617;28;20230;-84
2021/12/30 07:19:10;;;;;;;11.57;10.33;;;3.30;99.90;;;;;;5114281;28;20167;-87
2021/12/30 07:21:36;;;;;;;14.87;12.47;;;3.30;99.90;;;;;;5103157;28;20183;-83
2021/12/30 07:24:02;;;;;;;14.03;12.53;;;3.30;99.90;;;;;;5130482;28;20230;-85
2021/12/30 07:26:28;;;;;;;13.80;12.20;;;3.20;99.90;;;;;;5133144;28;20625;-86
2021/12/30 07:28:53;;;;;;;13.03;11.30;;;3.30;99.90;;;;;;5121022;28;20182;-83
2021/12/30 07:31:19;;;;;;;13.67;12.27;;;3.30;99.90;;;;;;5113135;28;20539;-82
2021/12/30 07:33:45;;;;;;;14.63;12.83;;;3.30;99.90;;;;;;5112228;28;20170;-83
2021/12/30 07:36:11;;;;;;;14.70;13.13;;;3.30;99.90;;;;;;5111888;28;20177;-82
2021/12/30 07:38:37;;;;;;;16.27;14.57;;;3.20;99.90;;;;;;5112052;28;20178;-82
2021/12/30 07:41:04;;;;;;;17.10;14.27;;;3.20;99.90;;;;;;5112974;28;20183;-82
2021/12/30 07:43:31;;;;;;;14.67;12.90;;;3.20;99.90;;;;;;5111883;28;20227;-81
2021/12/30 07:45:57;;;;;;;16.03;14.37;;;3.10;99.90;;;;;;5116185;28;20200;-82
2021/12/30 07:48:22;;;;;;;16.40;13.03;;;3.10;99.90;;;;;;5119256;28;20177;-83
2021/12/30 07:50:50;;;;;;;15.57;13.20;;;3.20;99.90;;;;;;5111721;28;20173;-83
2021/12/30 07:53:16;;;;;;;14.80;13.30;;;3.20;99.90;;;;;;5111409;28;20628;-89
2021/12/30 07:55:42;;;;;;;14.93;13.30;;;3.20;99.90;;;;;;5111076;28;20178;-83
2021/12/30 07:58:08;;;;;;;17.37;13.67;;;3.20;99.90;;;;;;5111404;28;20249;-84
2021/12/30 08:00:34;;;;;;;15.63;14.00;;;3.10;99.90;;;;;;5093150;28;20182;-82
2021/12/30 08:03:00;;;;;;;14.83;13.03;;;3.10;99.90;;;;;;5111400;28;20176;-83
2021/12/30 08:05:28;;;;;;;25.83;16.13;;;3.20;99.90;;;;;;5111157;28;20173;-82
2021/12/30 08:07:54;;;;;;;17.20;15.40;;;3.20;99.90;;;;;;5111445;28;20180;-83
2021/12/30 08:10:22;;;;;;;16.00;14.30;;;3.20;99.90;;;;;;5111438;28;20450;-83
2021/12/30 08:12:49;;;;;;;21.17;15.23;;;3.30;99.90;;;;;;5111816;28;20192;-83
2021/12/30 08:15:16;;;;;;;16.60;13.67;;;3.30;99.90;;;;;;5111347;28;20723;-82
2021/12/30 08:17:43;;;;;;;17.07;13.63;;;3.30;99.90;;;;;;5111415;28;20170;-83
2021/12/30 08:20:11;;;;;;;15.17;13.60;;;3.40;99.90;;;;;;5093147;28;20183;-87
2021/12/30 08:22:37;;;;;;;16.40;14.70;;;3.40;99.90;;;;;;5113390;28;20181;-86
2021/12/30 08:25:05;;;;;;;18.23;14.47;;;3.40;99.90;;;;;;5115193;28;20642;-84
2021/12/30 08:27:31;;;;;;;16.87;14.37;;;3.50;99.90;;;;;;5118153;28;20196;-84
2021/12/30 08:29:57;;;;;;;16.87;14.43;;;3.50;99.90;;;;;;5117190;28;20176;-85
2021/12/30 08:32:22;;;;;;;19.63;15.27;;;3.50;99.90;;;;;;5115600;28;20186;-89
2021/12/30 08:34:48;;;;;;;17.10;15.00;;;3.50;99.90;;;;;;5111706;28;20167;-87
2021/12/30 08:37:16;;;;;;;18.63;14.90;;;3.60;99.90;;;;;;5111953;28;20181;-87
2021/12/30 08:39:43;;;;;;;19.33;14.97;;;3.50;99.90;;;;;;5111968;28;20633;-91
2021/12/30 08:42:26;;;;;;;19.43;15.87;;;3.50;99.90;;;;;;5112470;28;20625;-92
2021/12/30 08:44:56;;;;;;;19.87;15.43;;;3.50;99.90;;;;;;5112070;28;20159;-85
2021/12/30 08:47:24;;;;;;;23.63;17.03;;;3.50;99.90;;;;;;5092438;28;20614;-86
2021/12/30 08:49:50;;;;;;;17.57;15.67;;;3.60;99.90;;;;;;5092731;28;20694;-81
2021/12/30 08:52:19;;;;;;;21.70;15.83;;;3.60;99.90;;;;;;5092028;28;20274;-82
2021/12/30 08:54:49;;;;;;;18.63;15.43;;;3.70;99.90;;;;;;5093151;28;20175;-84
2021/12/30 08:57:16;;;;;;;16.93;15.10;;;3.70;99.90;;;;;;5094160;28;20183;-86
2021/12/30 08:59:43;;;;;;;18.13;15.10;;;3.80;99.90;;;;;;5114588;28;20175;-88
2021/12/30 09:02:08;;;;;;;19.50;15.13;;;3.80;99.90;;;;;;5122415;28;20219;-83
2021/12/30 09:04:34;;;;;;;16.73;14.93;;;3.90;99.90;;;;;;5123113;28;20183;-80
2021/12/30 09:07:01;;;;;;;19.27;14.53;;;4.00;99.90;;;;;;5117700;28;20626;-82
2021/12/30 09:09:27;;;;;;;19.53;14.23;;;4.00;99.90;;;;;;5096018;28;20536;-81
2021/12/30 09:11:53;;;;;;;16.60;14.83;;;4.10;99.90;;;;;;5096564;28;20793;-81
2021/12/30 09:14:19;;;;;;;21.47;15.37;;;4.20;99.90;;;;;;5114966;28;20162;-80
2021/12/30 09:16:45;;;;;;;19.27;15.23;;;4.20;99.90;;;;;;5116211;28;20639;-79
2021/12/30 09:19:11;;;;;;;16.53;14.87;;;4.30;99.90;;;;;;5116211;28;20165;-80
2021/12/30 09:21:40;;;;;;;18.03;13.33;;;4.30;99.90;;;;;;5117454;28;20174;-81
2021/12/30 09:24:08;;;;;;;14.17;12.67;;;4.40;99.90;;;;;;5115300;28;20281;-80
2021/12/30 09:26:34;;;;;;;18.20;13.13;;;4.50;99.90;;;;;;5114523;28;20227;-83
2021/12/30 09:29:00;;;;;;;17.03;13.57;;;4.50;99.90;;;;;;5114567;28;20172;-80
2021/12/30 09:31:28;;;;;;;14.77;13.23;;;4.60;99.90;;;;;;5095936;28;20188;-81
2021/12/30 09:33:55;;;;;;;16.93;13.17;;;4.60;99.90;;;;;;5114341;28;20262;-81
2021/12/30 09:36:22;;;;;;;17.00;14.33;;;4.60;99.90;;;;;;5114385;28;20169;-81
2021/12/30 09:38:48;;;;;;;15.47;13.67;;;4.70;99.90;;;;;;5114188;28;20671;-81
2021/12/30 09:41:14;;;;;;;17.07;13.43;;;4.80;99.90;;;;;;5114208;28;20175;-81
2021/12/30 09:43:40;;;;;;;15.07;13.37;;;4.80;99.90;;;;;;5113879;28;20205;-80
2021/12/30 09:46:05;;;;;;;14.67;13.10;;;4.80;99.90;;;;;;5113709;28;20202;-80
2021/12/30 09:48:31;;;;;;;14.67;13.17;;;4.90;99.90;;;;;;5113962;28;20261;-80
2021/12/30 09:50:58;;;;;;;14.33;12.83;;;5.00;99.90;;;;;;5113960;28;20204;-80
2021/12/30 09:53:25;;;;;;;13.73;12.23;;;5.00;99.90;;;;;;5114005;28;20173;-82
2021/12/30 09:55:55;;;;;;;14.27;12.73;;;5.00;99.90;;;;;;5113856;28;20177;-80
2021/12/30 09:58:21;;;;;;;15.40;13.57;;;5.10;99.90;;;;;;5113802;28;20566;-82
2021/12/30 10:00:47;;;;;;;14.13;12.70;;;5.10;99.90;;;;;;5113750;28;20170;-82
2021/12/30 10:03:13;;;;;;;14.90;12.70;;;5.20;99.90;;;;;;5113691;28;20624;-80
2021/12/30 10:05:41;;;;;;;16.63;13.27;;;5.20;99.90;;;;;;5113444;28;20177;-80
2021/12/30 10:08:16;;;;;;;12.60;11.33;;;5.30;99.90;;;;;;5113526;28;20182;-79
2021/12/30 10:10:45;;;;;;;16.10;12.07;;;5.40;99.90;;;;;;5113711;28;20650;-81
2021/12/30 10:13:29;;;;;;;12.30;11.10;;;5.50;99.90;;;;;;5114062;28;20185;-80
2021/12/30 10:16:12;;;;;;;14.77;11.90;;;5.50;99.90;;;;;;5113828;28;20835;-80
2021/12/30 10:18:44;;;;;;;11.30;10.17;;;5.60;99.90;;;;;;5094814;28;20185;-85
2021/12/30 10:21:24;;;;;;;12.13;10.07;;;5.70;99.90;;;;;;5113429;28;20169;-82
2021/12/30 10:23:56;;;;;;;11.67;10.47;;;5.70;99.90;;;;;;5094700;28;20177;-82
2021/12/30 10:26:25;;;;;;;11.77;9.13;;;5.70;99.90;;;;;;5113096;28;20225;-84
2021/12/30 10:28:55;;;;;;;12.43;11.10;;;5.80;99.90;;;;;;5114074;28;20257;-81
2021/12/30 10:31:24;;;;;;;11.37;10.10;;;5.90;99.90;;;;;;5094802;28;20185;-82
2021/12/30 10:34:05;;;;;;;10.13;9.03;;;6.00;99.90;;;;;;5113277;28;20238;-82
2021/12/30 10:36:46;;;;;;;10.87;8.80;;;5.90;99.90;;;;;;5113099;28;20602;-82
2021/12/30 10:39:22;;;;;;;8.50;7.70;;;6.00;99.90;;;;;;5094778;28;20667;-82
2021/12/30 10:41:53;;;;;;;8.07;7.27;;;6.00;99.90;;;;;;5113045;28;20167;-85
2021/12/30 10:44:19;;;;;;;7.70;6.90;;;6.10;99.90;;;;;;5095631;28;20182;-91
2021/12/30 10:46:46;;;;;;;7.77;6.97;;;6.20;99.90;;;;;;5114372;28;20266;-86
2021/12/30 10:49:27;;;;;;;7.70;7.00;;;6.20;99.90;;;;;;5115215;28;20173;-85
2021/12/30 10:51:57;;;;;;;8.77;7.97;;;6.30;99.90;;;;;;5118936;28;20175;-85
2021/12/30 10:54:33;;;;;;;9.90;8.90;;;6.30;99.90;;;;;;5121755;28;20163;-81
2021/12/30 10:57:06;;;;;;;9.67;8.67;;;6.30;99.90;;;;;;5118019;28;20655;-79
2021/12/30 10:59:38;;;;;;;11.03;9.30;;;6.40;99.90;;;;;;5113000;28;20212;-81
2021/12/30 11:02:18;;;;;;;10.93;9.23;;;6.50;99.90;;;;;;5116632;28;20229;-80
2021/12/30 11:04:53;;;;;;;9.63;8.63;;;6.50;99.90;;;;;;5099971;28;20211;-85
2021/12/30 11:07:21;;;;;;;8.70;7.70;;;6.60;99.90;;;;;;5115589;28;20205;-82
2021/12/30 11:09:54;;;;;;;7.87;7.10;;;6.70;99.90;;;;;;5117158;28;20217;-84
2021/12/30 11:12:31;;;;;;;8.10;7.17;;;6.80;99.90;;;;;;5098742;28;20193;-80
2021/12/30 11:15:00;;;;;;;9.57;7.47;;;6.80;99.90;;;;;;5124925;28;20233;-80
2021/12/30 11:17:34;;;;;;;7.77;6.97;;;6.80;99.90;;;;;;5123692;28;20166;-81
2021/12/30 11:20:03;;;;;;;8.43;7.20;;;6.80;99.90;;;;;;5113599;28;20161;-79
2021/12/30 11:22:31;;;;;;;8.00;7.30;;;6.80;99.90;;;;;;5114004;28;20242;-80
2021/12/30 11:24:59;;;;;;;6.60;6.10;;;6.80;99.90;;;;;;5112359;28;20163;-80
2021/12/30 11:27:28;;;;;;;8.53;5.90;;;6.90;99.90;;;;;;5093918;28;20568;-81
2021/12/30 11:29:57;;;;;;;6.77;5.47;;;6.80;99.90;;;;;;5112094;28;20163;-80
2021/12/30 11:32:27;;;;;;;6.47;5.87;;;6.90;99.90;;;;;;5111680;28;20254;-83
2021/12/30 11:34:53;;;;;;;6.63;6.00;;;6.90;99.90;;;;;;5112377;28;20196;-84
2021/12/30 11:37:20;;;;;;;5.47;4.87;;;7.00;99.90;;;;;;5093660;28;20173;-80
2021/12/30 11:39:49;;;;;;;5.80;5.23;;;7.00;99.90;;;;;;5112355;28;20181;-82
2021/12/30 11:42:26;;;;;;;6.13;5.57;;;7.00;99.90;;;;;;5111820;28;20607;-80
2021/12/30 11:44:58;;;;;;;6.43;5.93;;;7.10;99.90;;;;;;5111884;28;20186;-80
2021/12/30 11:47:36;;;;;;;5.80;5.40;;;7.10;99.90;;;;;;5111838;28;20679;-80
2021/12/30 11:50:06;;;;;;;6.57;5.97;;;7.20;99.90;;;;;;5093413;28;20177;-81
2021/12/30 11:52:51;;;;;;;6.43;5.93;;;7.30;99.90;;;;;;5093742;28;20177;-83
2021/12/30 11:55:40;;;;;;;6.30;5.70;;;7.50;99.90;;;;;;5112317;28;20177;-83
2021/12/30 11:58:40;;;;;;;6.60;5.57;;;7.60;99.90;;;;;;5112727;28;20170;-84
2021/12/30 12:01:40;;;;;;;6.70;6.10;;;7.70;99.90;;;;;;5100356;28;20177;-86
2021/12/30 12:04:10;;;;;;;6.27;5.40;;;7.80;99.90;;;;;;5131287;28;20299;-87
2021/12/30 12:06:46;;;;;;;6.40;5.80;;;7.80;99.90;;;;;;5114778;28;20198;-87
2021/12/30 12:09:22;;;;;;;5.83;5.23;;;7.80;99.90;;;;;;5116207;28;20167;-84
2021/12/30 12:11:53;;;;;;;5.27;4.93;;;7.80;99.90;;;;;;5113117;28;20358;-86
2021/12/30 12:14:24;;;;;;;5.10;4.77;;;7.70;99.90;;;;;;5095290;28;20629;-85
2021/12/30 12:17:01;;;;;;;9.10;5.70;;;7.70;99.90;;;;;;5113508;28;20194;-87
2021/12/30 12:19:36;;;;;;;6.60;6.00;;;7.70;99.90;;;;;;5095521;28;20705;-90
2021/12/30 12:22:05;;;;;;;5.90;5.50;;;7.70;99.90;;;;;;5112678;28;20178;-87
2021/12/30 12:24:40;;;;;;;6.20;5.60;;;7.70;99.90;;;;;;5113280;28;20162;-86
2021/12/30 12:27:29;;;;;;;6.53;5.43;;;7.80;99.90;;;;;;5095455;28;20260;-84
2021/12/30 12:29:56;;;;;;;6.00;5.50;;;7.80;99.90;;;;;;5113397;28;20152;-86
2021/12/30 12:32:32;;;;;;;6.13;5.63;;;7.90;99.90;;;;;;5113775;28;20653;-86
2021/12/30 12:35:00;;;;;;;6.10;5.70;;;8.00;99.90;;;;;;5115373;28;20260;-86
2021/12/30 12:37:32;;;;;;;6.67;6.17;;;8.00;99.90;;;;;;5114906;28;20196;-88
2021/12/30 12:40:04;;;;;;;7.40;6.10;;;8.20;99.90;;;;;;5095748;28;20615;-89
2021/12/30 12:42:48;;;;;;;6.63;6.00;;;8.40;99.90;;;;;;5113845;28;20175;-84
2021/12/30 12:45:17;;;;;;;6.47;5.33;;;8.50;99.90;;;;;;5104809;28;20184;-88